createdAt,value
2018-10-09T00:02:09.416Z,3.20
2018-10-09T00:04:51.451Z,3.83
2018-10-09T00:07:32.635Z,2.70
2018-10-09T00:10:14.261Z,3.20
2018-10-09T00:12:55.621Z,2.57
2018-10-09T00:15:37.693Z,2.00
2018-10-09T00:18:19.027Z,1.97
2018-10-09T00:21:00.645Z,3.77
2018-10-09T00:23:41.485Z,1.80
2018-10-09T00:26:23.440Z,2.50
2018-10-09T00:29:05.073Z,2.60
2018-10-09T00:31:46.853Z,2.13
2018-10-09T00:34:28.547Z,2.80
2018-10-09T00:37:09.581Z,2.23
2018-10-09T00:39:50.495Z,4.13
2018-10-09T00:42:31.179Z,2.33
2018-10-09T00:45:11.999Z,2.93
2018-10-09T00:47:52.938Z,3.10
2018-10-09T00:50:33.662Z,2.83
2018-10-09T00:53:14.537Z,2.07
2018-10-09T00:55:56.066Z,2.57
2018-10-09T00:58:37.714Z,2.07
2018-10-09T01:01:19.312Z,2.33
2018-10-09T01:04:00.968Z,2.10
2018-10-09T01:06:42.494Z,2.67
2018-10-09T01:09:24.175Z,2.73
2018-10-09T01:12:07.647Z,2.60
2018-10-09T01:14:54.155Z,6.23
2018-10-09T01:17:35.546Z,4.07
2018-10-09T01:20:21.272Z,3.30
2018-10-09T01:23:10.734Z,2.93
2018-10-09T01:25:52.352Z,4.07
2018-10-09T01:28:33.998Z,3.47
2018-10-09T01:31:18.868Z,6.90
2018-10-09T01:34:02.997Z,2.37
2018-10-09T01:36:44.682Z,3.27
2018-10-09T01:39:25.417Z,3.07
2018-10-09T01:42:06.995Z,2.30
2018-10-09T01:44:58.986Z,2.03
2018-10-09T01:47:39.985Z,2.03
2018-10-09T01:50:21.590Z,1.93
2018-10-09T01:53:02.539Z,2.20
2018-10-09T01:55:45.224Z,2.67
2018-10-09T01:58:26.880Z,2.17
2018-10-09T02:01:08.588Z,3.67
2018-10-09T02:03:50.182Z,2.10
2018-10-09T02:06:35.625Z,2.23
2018-10-09T02:09:17.227Z,3.23
2018-10-09T02:11:58.779Z,2.10
2018-10-09T02:14:40.478Z,2.60
2018-10-09T02:17:34.640Z,1.90
2018-10-09T02:20:15.860Z,2.30
2018-10-09T02:23:01.333Z,2.03
2018-10-09T02:25:43.718Z,3.17
2018-10-09T02:28:25.813Z,2.20
2018-10-09T02:31:08.112Z,1.83
2018-10-09T02:33:49.942Z,1.93
2018-10-09T02:36:35.314Z,2.53
2018-10-09T02:39:16.095Z,2.40
2018-10-09T02:41:57.851Z,2.93
2018-10-09T02:44:39.731Z,2.20
2018-10-09T02:47:21.169Z,2.17
2018-10-09T02:50:02.893Z,2.20
2018-10-09T02:52:44.575Z,5.20
2018-10-09T02:55:29.205Z,2.60
2018-10-09T02:58:10.191Z,3.33
2018-10-09T03:00:51.824Z,3.40
2018-10-09T03:03:36.743Z,2.30
2018-10-09T03:06:21.386Z,2.00
2018-10-09T03:09:02.475Z,2.80
2018-10-09T03:11:43.258Z,2.33
2018-10-09T03:14:24.094Z,12.10
2018-10-09T03:17:05.578Z,2.23
2018-10-09T03:19:47.834Z,2.10
2018-10-09T03:22:31.453Z,2.00
2018-10-09T03:25:13.114Z,2.17
2018-10-09T03:27:54.774Z,1.93
2018-10-09T03:30:37.325Z,2.07
2018-10-09T03:33:19.144Z,3.00
2018-10-09T03:36:03.898Z,1.90
2018-10-09T03:38:45.579Z,2.30
2018-10-09T03:41:28.919Z,2.80
2018-10-09T03:44:11.878Z,1.80
2018-10-09T03:46:54.505Z,1.77
2018-10-09T03:49:36.297Z,2.60
2018-10-09T03:52:17.091Z,2.43
2018-10-09T03:55:05.940Z,2.50
2018-10-09T03:57:47.745Z,5.17
2018-10-09T04:00:28.607Z,3.30
2018-10-09T04:03:09.381Z,3.07
2018-10-09T04:05:51.164Z,3.13
2018-10-09T04:08:34.711Z,2.47
2018-10-09T04:11:15.607Z,2.97
2018-10-09T04:13:56.489Z,2.63
2018-10-09T04:16:38.689Z,2.93
2018-10-09T04:19:20.310Z,5.60
2018-10-09T04:22:01.758Z,6.67
2018-10-09T04:24:47.314Z,2.27
2018-10-09T04:27:27.999Z,5.00
2018-10-09T04:30:09.698Z,3.97
2018-10-09T04:32:50.436Z,5.20
2018-10-09T04:35:33.596Z,9.53
2018-10-09T04:38:14.757Z,7.20
2018-10-09T04:40:55.617Z,10.23
2018-10-09T04:43:38.212Z,8.70
2018-10-09T04:46:19.812Z,2.57
2018-10-09T04:49:01.323Z,3.27
2018-10-09T04:51:42.979Z,5.33
2018-10-09T04:54:25.397Z,2.53
2018-10-09T04:57:06.424Z,5.30
2018-10-09T04:59:47.292Z,7.03
2018-10-09T05:02:28.133Z,3.87
2018-10-09T05:05:09.088Z,4.43
2018-10-09T05:07:51.403Z,4.83
2018-10-09T05:10:32.802Z,5.50
2018-10-09T05:13:13.782Z,2.50
2018-10-09T05:15:54.523Z,4.30
2018-10-09T05:18:35.294Z,2.60
2018-10-09T05:21:16.112Z,3.30
2018-10-09T05:23:57.822Z,2.47
2018-10-09T05:26:38.444Z,4.57
2018-10-09T05:32:25.814Z,2.73
2018-10-09T05:35:07.458Z,4.33
2018-10-09T05:37:49.164Z,2.07
2018-10-09T05:40:30.648Z,4.67
2018-10-09T05:43:12.311Z,3.80
2018-10-09T05:45:53.797Z,5.87
2018-10-09T05:48:35.355Z,2.87
2018-10-09T05:51:16.978Z,2.27
2018-10-09T05:53:58.711Z,3.17
2018-10-09T05:56:40.190Z,3.37
2018-10-09T05:59:21.689Z,4.30
2018-10-09T06:02:03.412Z,2.20
2018-10-09T06:04:48.933Z,5.80
2018-10-09T06:07:29.660Z,4.07
2018-10-09T06:10:11.180Z,3.50
2018-10-09T06:12:52.722Z,9.57
2018-10-09T06:15:34.211Z,2.57
2018-10-09T06:18:15.930Z,7.17
2018-10-09T06:20:57.649Z,6.67
2018-10-09T06:23:39.320Z,17.17
2018-10-09T06:26:20.798Z,14.70
2018-10-09T06:29:02.282Z,11.03
2018-10-09T06:31:54.298Z,15.43
2018-10-09T06:34:36.176Z,16.67
2018-10-09T06:37:17.328Z,26.17
2018-10-09T06:39:59.088Z,13.17
2018-10-09T06:42:40.839Z,16.77
2018-10-09T06:45:23.389Z,16.40
2018-10-09T06:48:04.056Z,22.23
2018-10-09T06:50:44.984Z,22.53
2018-10-09T06:53:26.698Z,13.90
2018-10-09T06:56:08.130Z,11.30
2018-10-09T06:58:49.745Z,10.80
2018-10-09T07:01:31.140Z,7.33
2018-10-09T07:04:12.696Z,11.50
2018-10-09T07:06:54.511Z,9.93
2018-10-09T07:09:36.499Z,13.43
2018-10-09T07:12:17.587Z,7.83
2018-10-09T07:14:59.310Z,12.43
2018-10-09T07:17:40.972Z,13.20
2018-10-09T07:20:22.424Z,11.53
2018-10-09T07:23:03.963Z,9.20
2018-10-09T07:25:45.735Z,3.87
2018-10-09T07:28:27.426Z,5.73
2018-10-09T07:31:09.138Z,8.30
2018-10-09T07:33:50.665Z,4.93
2018-10-09T07:36:32.360Z,2.27
2018-10-09T07:39:14.659Z,2.47
2018-10-09T07:41:55.739Z,2.23
2018-10-09T07:44:36.940Z,2.80
2018-10-09T07:47:18.104Z,3.67
2018-10-09T07:49:59.637Z,1.97
2018-10-09T07:52:41.425Z,15.73
2018-10-09T07:55:23.519Z,5.00
2018-10-09T07:58:04.528Z,3.17
2018-10-09T08:00:45.990Z,5.97
2018-10-09T08:03:28.101Z,4.73
2018-10-09T08:06:08.972Z,2.50
2018-10-09T08:08:50.604Z,4.80
2018-10-09T08:11:32.255Z,12.80
2018-10-09T08:14:13.859Z,5.20
2018-10-09T08:16:55.538Z,3.90
2018-10-09T08:19:37.313Z,2.90
2018-10-09T08:22:18.908Z,5.30
2018-10-09T08:25:00.589Z,7.03
2018-10-09T08:27:42.166Z,3.37
2018-10-09T08:30:23.759Z,5.87
2018-10-09T08:33:05.627Z,4.20
2018-10-09T08:35:46.810Z,2.53
2018-10-09T08:38:28.439Z,4.30
2018-10-09T08:41:10.140Z,4.70
2018-10-09T08:43:51.747Z,6.83
2018-10-09T08:46:32.530Z,5.20
2018-10-09T08:49:14.145Z,11.90
2018-10-09T08:51:55.758Z,7.53
2018-10-09T08:54:37.367Z,6.40
2018-10-09T08:57:18.934Z,5.67
2018-10-09T09:00:00.616Z,6.57
2018-10-09T09:02:42.188Z,13.70
2018-10-09T09:05:24.009Z,20.30
2018-10-09T09:08:05.494Z,7.17
2018-10-09T09:10:46.266Z,5.77
2018-10-09T09:13:28.146Z,7.20
2018-10-09T09:16:09.758Z,9.50
2018-10-09T09:18:51.472Z,14.20
2018-10-09T09:21:33.226Z,8.53
2018-10-09T09:24:14.718Z,9.27
2018-10-09T09:26:56.481Z,6.90
2018-10-09T09:29:38.038Z,8.33
2018-10-09T09:32:19.589Z,12.73
2018-10-09T09:35:01.208Z,11.43
2018-10-09T09:37:43.375Z,7.53
2018-10-09T09:40:24.934Z,7.20
2018-10-09T09:43:05.901Z,10.47
2018-10-09T09:45:47.573Z,16.33
2018-10-09T09:48:30.067Z,12.80
2018-10-09T09:51:11.910Z,9.70
2018-10-09T09:53:53.795Z,7.90
2018-10-09T09:56:34.459Z,10.60
2018-10-09T09:59:16.229Z,10.77
2018-10-09T10:01:57.055Z,6.17
2018-10-09T10:04:39.186Z,12.90
2018-10-09T10:07:20.301Z,6.80
2018-10-09T10:10:02.481Z,5.43
2018-10-09T10:12:43.729Z,12.33
2018-10-09T10:15:25.334Z,13.93
2018-10-09T10:18:06.957Z,9.33
2018-10-09T10:20:48.509Z,8.27
2018-10-09T10:23:31.257Z,7.30
2018-10-09T10:26:13.006Z,9.20
2018-10-09T10:28:54.673Z,7.13
2018-10-09T10:31:36.363Z,8.23
2018-10-09T10:34:17.982Z,11.40
2018-10-09T10:36:59.532Z,5.37
2018-10-09T10:39:41.356Z,7.63
2018-10-09T10:42:22.807Z,4.87
2018-10-09T10:45:04.509Z,11.50
2018-10-09T10:47:46.740Z,12.67
2018-10-09T10:50:27.912Z,8.43
2018-10-09T10:53:09.610Z,7.80
2018-10-09T10:55:52.555Z,15.53
2018-10-09T10:58:33.904Z,7.80
2018-10-09T11:01:15.614Z,9.97
2018-10-09T11:03:57.541Z,8.33
2018-10-09T11:06:38.858Z,20.13
2018-10-09T11:09:20.437Z,8.30
2018-10-09T11:12:01.365Z,6.67
2018-10-09T11:14:42.903Z,10.10
2018-10-09T11:17:23.661Z,4.97
2018-10-09T11:20:04.866Z,6.60
2018-10-09T11:22:45.901Z,5.33
2018-10-09T11:25:27.500Z,6.83
2018-10-09T11:28:08.315Z,8.20
2018-10-09T11:30:48.979Z,5.83
2018-10-09T11:33:29.805Z,6.73
2018-10-09T11:36:11.511Z,3.13
2018-10-09T11:38:53.262Z,9.17
2018-10-09T11:41:34.871Z,8.00
2018-10-09T11:44:16.456Z,10.77
2018-10-09T11:46:58.115Z,7.83
2018-10-09T11:49:39.530Z,23.80
2018-10-09T11:52:20.242Z,5.10
2018-10-09T11:55:01.166Z,7.00
2018-10-09T11:57:42.684Z,5.63
2018-10-09T12:00:24.607Z,9.20
2018-10-09T12:03:06.850Z,11.67
2018-10-09T12:05:47.676Z,8.30
2018-10-09T12:08:29.183Z,6.87
2018-10-09T12:11:10.764Z,11.10
2018-10-09T12:13:51.544Z,9.27
2018-10-09T12:16:32.378Z,7.80
2018-10-09T12:19:13.222Z,16.73
2018-10-09T12:21:54.197Z,5.43
2018-10-09T12:24:35.073Z,11.30
2018-10-09T12:27:15.957Z,9.80
2018-10-09T12:29:58.464Z,6.83
2018-10-09T12:32:39.257Z,8.73
2018-10-09T12:35:20.101Z,9.37
2018-10-09T12:38:00.782Z,6.23
2018-10-09T12:40:41.535Z,12.13
2018-10-09T12:43:22.552Z,7.53
2018-10-09T12:46:20.628Z,13.70
2018-10-09T12:49:01.966Z,12.40
2018-10-09T12:51:43.659Z,7.90
2018-10-09T12:54:26.236Z,6.77
2018-10-09T12:57:07.880Z,10.57
2018-10-09T12:59:49.516Z,9.73
2018-10-09T13:02:31.066Z,13.00
2018-10-09T13:05:12.659Z,11.20
2018-10-09T13:07:54.323Z,8.90
2018-10-09T13:10:35.882Z,8.93
2018-10-09T13:13:17.381Z,7.30
2018-10-09T13:15:58.828Z,6.60
2018-10-09T13:18:40.862Z,14.23
2018-10-09T13:21:22.152Z,8.73
2018-10-09T13:24:03.738Z,6.40
2018-10-09T13:26:47.496Z,8.93
2018-10-09T13:29:28.844Z,6.43
2018-10-09T13:32:10.399Z,7.10
2018-10-09T13:34:51.922Z,7.50
2018-10-09T13:37:32.871Z,5.40
2018-10-09T13:40:14.356Z,7.00
2018-10-09T13:42:56.350Z,8.37
2018-10-09T13:45:38.348Z,3.50
2018-10-09T13:48:19.120Z,6.17
2018-10-09T13:51:00.788Z,4.17
2018-10-09T13:53:42.388Z,5.50
2018-10-09T13:56:23.095Z,8.53
2018-10-09T13:59:04.061Z,6.70
2018-10-09T14:01:45.754Z,6.03
2018-10-09T14:04:27.231Z,9.67
2018-10-09T14:07:08.744Z,6.27
2018-10-09T14:09:50.289Z,7.87
2018-10-09T14:12:31.930Z,3.10
2018-10-09T14:15:13.504Z,5.53
2018-10-09T14:17:54.972Z,5.87
2018-10-09T14:20:36.535Z,7.87
2018-10-09T14:23:18.133Z,7.33
2018-10-09T14:25:59.591Z,6.27
2018-10-09T14:28:41.183Z,5.17
2018-10-09T14:31:22.754Z,9.00
2018-10-09T14:34:04.340Z,6.47
2018-10-09T14:36:44.995Z,8.10
2018-10-09T14:39:26.902Z,4.63
2018-10-09T14:42:09.510Z,8.10
2018-10-09T14:44:51.344Z,7.63
2018-10-09T14:47:32.979Z,9.47
2018-10-09T14:50:14.417Z,4.83
2018-10-09T14:52:55.234Z,7.50
2018-10-09T14:55:36.752Z,7.40
2018-10-09T14:58:18.373Z,6.00
2018-10-09T15:00:59.219Z,12.10
2018-10-09T15:03:40.110Z,6.43
2018-10-09T15:06:21.619Z,5.93
2018-10-09T15:09:03.680Z,4.90
2018-10-09T15:11:45.322Z,5.07
2018-10-09T15:14:26.995Z,6.30
2018-10-09T15:17:08.409Z,9.07
2018-10-09T15:19:50.540Z,6.40
2018-10-09T15:22:31.433Z,7.83
2018-10-09T15:25:13.116Z,4.50
2018-10-09T15:27:54.817Z,5.57
2018-10-09T15:30:36.524Z,4.73
2018-10-09T15:33:18.144Z,4.87
2018-10-09T15:35:59.730Z,5.80
2018-10-09T15:38:41.386Z,6.37
2018-10-09T15:41:22.955Z,8.27
2018-10-09T15:44:04.514Z,4.97
2018-10-09T15:46:46.197Z,3.60
2018-10-09T15:49:27.842Z,5.77
2018-10-09T15:52:09.446Z,10.03
2018-10-09T15:54:51.012Z,4.70
2018-10-09T15:57:32.636Z,4.90
2018-10-09T16:00:14.174Z,2.60
2018-10-09T16:02:55.869Z,5.50
2018-10-09T16:05:37.465Z,8.50
2018-10-09T16:08:18.870Z,11.73
2018-10-09T16:11:00.721Z,3.60
2018-10-09T16:13:42.262Z,3.23
2018-10-09T16:16:23.973Z,2.57
2018-10-09T16:19:05.590Z,3.10
2018-10-09T16:21:47.092Z,2.60
2018-10-09T16:24:28.878Z,3.63
2018-10-09T16:27:10.577Z,4.07
2018-10-09T16:29:52.238Z,4.13
2018-10-09T16:32:33.840Z,4.80
2018-10-09T16:35:15.487Z,7.03
2018-10-09T16:37:57.301Z,4.20
2018-10-09T16:40:39.407Z,3.50
2018-10-09T16:43:20.519Z,4.07
2018-10-09T16:46:02.199Z,3.77
2018-10-09T16:48:43.675Z,6.07
2018-10-09T16:51:25.267Z,4.53
2018-10-09T16:54:07.249Z,3.40
2018-10-09T16:56:48.422Z,3.97
2018-10-09T16:59:30.082Z,9.50
2018-10-09T17:02:11.783Z,7.83
2018-10-09T17:04:53.303Z,5.73
2018-10-09T17:07:35.957Z,19.00
2018-10-09T17:10:17.040Z,6.93
2018-10-09T17:12:58.345Z,5.50
2018-10-09T17:15:40.024Z,6.27
2018-10-09T17:18:21.637Z,5.80
2018-10-09T17:21:03.244Z,6.37
2018-10-09T17:23:44.864Z,13.50
2018-10-09T17:26:26.044Z,5.00
2018-10-09T17:29:07.590Z,8.97
2018-10-09T17:31:49.923Z,13.90
2018-10-09T17:34:30.931Z,13.50
2018-10-09T17:37:13.845Z,8.57
2018-10-09T17:39:55.499Z,7.60
2018-10-09T17:42:37.405Z,19.00
2018-10-09T17:45:18.911Z,11.87
2018-10-09T17:48:00.642Z,10.93
2018-10-09T17:50:42.787Z,9.07
2018-10-09T17:53:23.849Z,12.30
2018-10-09T17:56:05.641Z,15.20
2018-10-09T17:58:47.342Z,7.20
2018-10-09T18:01:29.591Z,11.03
2018-10-09T18:04:10.903Z,12.57
2018-10-09T18:06:52.960Z,11.83
2018-10-09T18:09:34.320Z,16.87
2018-10-09T18:12:18.098Z,17.27
2018-10-09T18:14:59.821Z,24.67
2018-10-09T18:17:40.636Z,23.43
2018-10-09T18:20:22.382Z,13.23
2018-10-09T18:23:05.091Z,13.43
2018-10-09T18:25:46.882Z,14.60
2018-10-09T18:28:28.669Z,13.43
2018-10-09T18:31:10.948Z,8.20
2018-10-09T18:33:52.166Z,6.90
2018-10-09T18:36:33.069Z,10.40
2018-10-09T18:39:16.559Z,8.73
2018-10-09T18:41:58.493Z,8.07
2018-10-09T18:44:39.962Z,8.53
2018-10-09T18:47:25.888Z,6.07
2018-10-09T18:50:07.794Z,10.23
2018-10-09T18:52:49.889Z,11.37
2018-10-09T18:55:30.909Z,15.40
2018-10-09T18:58:12.489Z,12.73
2018-10-09T19:00:54.392Z,8.67
2018-10-09T19:03:35.832Z,10.90
2018-10-09T19:06:18.198Z,4.83
2018-10-09T19:08:59.141Z,3.73
2018-10-09T19:11:40.864Z,3.00
2018-10-09T19:14:22.589Z,5.47
2018-10-09T19:17:04.315Z,4.70
2018-10-09T19:19:45.747Z,3.50
2018-10-09T19:22:27.294Z,3.60
2018-10-09T19:25:10.817Z,7.53
2018-10-09T19:27:51.760Z,2.07
2018-10-09T19:30:33.499Z,3.23
2018-10-09T19:33:15.672Z,3.43
2018-10-09T19:35:58.230Z,4.70
2018-10-09T19:38:40.024Z,4.43
2018-10-09T19:41:24.790Z,2.90
2018-10-09T19:44:06.821Z,3.13
2018-10-09T19:46:48.417Z,6.00
2018-10-09T19:49:30.230Z,6.07
2018-10-09T19:52:13.074Z,3.43
2018-10-09T19:54:54.933Z,2.87
2018-10-09T19:57:36.558Z,6.27
2018-10-09T20:00:17.389Z,3.67
2018-10-09T20:02:58.256Z,5.70
2018-10-09T20:05:39.699Z,12.37
2018-10-09T20:08:21.378Z,7.00
2018-10-09T20:11:03.210Z,9.13
2018-10-09T20:13:45.073Z,6.63
2018-10-09T20:16:26.650Z,6.90
2018-10-09T20:19:07.743Z,7.77
2018-10-09T20:21:49.144Z,17.93
2018-10-09T20:24:31.037Z,12.73
2018-10-09T20:27:12.532Z,8.70
2018-10-09T20:29:53.892Z,11.97
2018-10-09T20:32:35.593Z,6.20
2018-10-09T20:35:17.110Z,9.93
2018-10-09T20:37:57.813Z,4.03
2018-10-09T20:40:40.444Z,7.13
2018-10-09T20:43:22.050Z,6.87
2018-10-09T20:46:04.155Z,6.70
2018-10-09T20:55:52.958Z,2.63
2018-10-09T20:58:34.233Z,5.53
2018-10-09T21:01:15.616Z,7.50
2018-10-09T21:03:57.576Z,3.67
2018-10-09T21:06:38.906Z,7.23
2018-10-09T21:09:21.145Z,4.90
2018-10-09T21:12:02.207Z,6.97
2018-10-09T21:14:43.560Z,4.43
2018-10-09T21:17:25.281Z,6.23
2018-10-09T21:20:07.100Z,3.13
2018-10-09T21:25:16.933Z,4.57
2018-10-09T21:27:58.295Z,2.93
2018-10-09T21:30:39.747Z,1.90
2018-10-09T21:33:20.856Z,2.23
2018-10-09T21:36:02.606Z,1.70
2018-10-09T21:38:44.108Z,2.50
2018-10-09T21:41:25.788Z,2.00
2018-10-09T21:44:07.254Z,9.13
2018-10-09T21:46:49.489Z,4.57
2018-10-09T21:49:31.370Z,2.40
2018-10-09T21:52:12.974Z,6.13
2018-10-09T21:54:54.673Z,3.93
2018-10-09T21:57:37.019Z,2.10
2018-10-09T22:00:17.986Z,3.67
2018-10-09T22:02:59.785Z,4.37
2018-10-09T22:05:41.389Z,3.70
2018-10-09T22:08:22.769Z,6.20
2018-10-09T22:11:04.584Z,7.97
2018-10-09T22:13:45.993Z,7.50
2018-10-09T22:16:28.644Z,3.13
2018-10-09T22:19:10.286Z,8.40
2018-10-09T22:21:51.807Z,3.87
2018-10-09T22:24:33.886Z,4.03
2018-10-09T22:27:15.763Z,4.20
2018-10-09T22:29:56.787Z,4.33
2018-10-09T22:32:38.550Z,6.93
2018-10-09T22:35:19.984Z,8.93
2018-10-09T22:38:01.714Z,2.90
2018-10-09T22:40:43.323Z,4.57
2018-10-09T22:43:25.363Z,3.90
2018-10-09T22:46:07.871Z,3.43
2018-10-09T22:48:49.129Z,2.43
2018-10-09T22:51:31.349Z,2.20
2018-10-09T22:54:13.454Z,2.17
2018-10-09T22:56:54.496Z,2.97
2018-10-09T22:59:35.802Z,1.93
2018-10-09T23:02:17.347Z,7.23
2018-10-09T23:04:59.001Z,2.87
2018-10-09T23:07:40.918Z,2.17
2018-10-09T23:10:22.806Z,1.97
2018-10-09T23:13:04.525Z,2.23
2018-10-09T23:15:46.094Z,5.43
2018-10-09T23:18:27.906Z,2.57
2018-10-09T23:21:09.276Z,5.03
2018-10-09T23:23:50.878Z,5.47
2018-10-09T23:26:32.472Z,2.37
2018-10-09T23:29:13.973Z,3.40
2018-10-09T23:31:55.539Z,3.63
2018-10-09T23:34:37.950Z,6.03
2018-10-09T23:37:19.607Z,3.30
2018-10-09T23:40:02.049Z,3.67
2018-10-09T23:42:44.394Z,3.40
2018-10-09T23:45:25.255Z,2.33
2018-10-09T23:48:10.104Z,2.90
2018-10-09T23:50:51.452Z,7.27
2018-10-09T23:53:32.936Z,6.43
2018-10-09T23:56:14.609Z,1.33
2018-10-09T23:58:56.308Z,9.03
